sensor_id;sensor_type;location;lat;lon;timestamp;temperature;humidity
2955;DHT22;1487;51.470;6.938;2023-04-26T00:02:17;3.10;99.90
2955;DHT22;1487;51.470;6.938;2023-04-26T00:04:44;3.10;99.90
2955;DHT22;1487;51.470;6.938;2023-04-26T00:07:12;3.10;99.90
2955;DHT22;1487;51.470;6.938;2023-04-26T00:09:41;3.00;99.90
2955;DHT22;1487;51.470;6.938;2023-04-26T00:12:09;3.00;99.90
2955;DHT22;1487;51.470;6.938;2023-04-26T00:14:36;2.90;99.90
2955;DHT22;1487;51.470;6.938;2023-04-26T00:17:03;2.90;99.90
2955;DHT22;1487;51.470;6.938;2023-04-26T00:19:30;2.90;99.90
2955;DHT22;1487;51.470;6.938;2023-04-26T00:21:57;2.90;99.90
2955;DHT22;1487;51.470;6.938;2023-04-26T00:24:24;2.80;99.90
2955;DHT22;1487;51.470;6.938;2023-04-26T00:26:54;2.80;99.90
2955;DHT22;1487;51.470;6.938;2023-04-26T00:29:21;2.90;99.90
2955;DHT22;1487;51.470;6.938;2023-04-26T00:31:47;2.90;99.90
2955;DHT22;1487;51.470;6.938;2023-04-26T00:34:14;2.90;99.90
2955;DHT22;1487;51.470;6.938;2023-04-26T00:36:41;2.80;99.90
2955;DHT22;1487;51.470;6.938;2023-04-26T00:39:08;2.80;99.90
2955;DHT22;1487;51.470;6.938;2023-04-26T00:41:35;2.80;99.90
2955;DHT22;1487;51.470;6.938;2023-04-26T00:44:04;2.80;99.90
2955;DHT22;1487;51.470;6.938;2023-04-26T00:46:31;2.80;99.90
2955;DHT22;1487;51.470;6.938;2023-04-26T00:48:58;2.80;99.90
2955;DHT22;1487;51.470;6.938;2023-04-26T00:51:24;2.80;99.90
2955;DHT22;1487;51.470;6.938;2023-04-26T00:53:52;2.80;99.90
2955;DHT22;1487;51.470;6.938;2023-04-26T00:56:20;2.80;99.90
2955;DHT22;1487;51.470;6.938;2023-04-26T00:58:48;2.80;99.90
2955;DHT22;1487;51.470;6.938;2023-04-26T01:01:16;2.80;99.90
2955;DHT22;1487;51.470;6.938;2023-04-26T01:03:44;2.70;99.90
2955;DHT22;1487;51.470;6.938;2023-04-26T01:06:11;2.80;99.90
2955;DHT22;1487;51.470;6.938;2023-04-26T01:08:38;2.80;99.90
2955;DHT22;1487;51.470;6.938;2023-04-26T01:11:05;2.70;99.90
2955;DHT22;1487;51.470;6.938;2023-04-26T01:13:33;2.70;99.90
2955;DHT22;1487;51.470;6.938;2023-04-26T01:16:01;2.70;99.90
2955;DHT22;1487;51.470;6.938;2023-04-26T01:18:30;2.60;99.90
2955;DHT22;1487;51.470;6.938;2023-04-26T01:20:57;2.70;99.90
2955;DHT22;1487;51.470;6.938;2023-04-26T01:23:25;2.60;99.90
2955;DHT22;1487;51.470;6.938;2023-04-26T01:25:52;2.60;99.90
2955;DHT22;1487;51.470;6.938;2023-04-26T01:28:20;2.50;99.90
2955;DHT22;1487;51.470;6.938;2023-04-26T01:30:47;2.40;99.90
2955;DHT22;1487;51.470;6.938;2023-04-26T01:33:14;2.40;99.90
2955;DHT22;1487;51.470;6.938;2023-04-26T01:35:41;2.40;99.90
2955;DHT22;1487;51.470;6.938;2023-04-26T01:38:08;2.30;99.90
2955;DHT22;1487;51.470;6.938;2023-04-26T01:40:36;2.30;99.90
2955;DHT22;1487;51.470;6.938;2023-04-26T01:43:03;2.30;99.90
2955;DHT22;1487;51.470;6.938;2023-04-26T01:45:30;2.30;99.90
2955;DHT22;1487;51.470;6.938;2023-04-26T01:47:57;2.30;99.90
2955;DHT22;1487;51.470;6.938;2023-04-26T01:50:24;2.30;99.90
2955;DHT22;1487;51.470;6.938;2023-04-26T01:52:51;2.40;99.90
2955;DHT22;1487;51.470;6.938;2023-04-26T01:55:18;2.40;99.90
2955;DHT22;1487;51.470;6.938;2023-04-26T01:57:46;2.50;99.90
2955;DHT22;1487;51.470;6.938;2023-04-26T02:00:13;2.50;99.90
2955;DHT22;1487;51.470;6.938;2023-04-26T02:02:40;2.50;99.90
2955;DHT22;1487;51.470;6.938;2023-04-26T02:05:10;2.50;99.90
2955;DHT22;1487;51.470;6.938;2023-04-26T02:07:37;2.60;99.90
2955;DHT22;1487;51.470;6.938;2023-04-26T02:10:05;2.60;99.90
2955;DHT22;1487;51.470;6.938;2023-04-26T02:12:32;2.60;99.90
2955;DHT22;1487;51.470;6.938;2023-04-26T02:15:00;2.60;99.90
2955;DHT22;1487;51.470;6.938;2023-04-26T02:17:27;2.60;99.90
2955;DHT22;1487;51.470;6.938;2023-04-26T02:19:54;2.60;99.90
2955;DHT22;1487;51.470;6.938;2023-04-26T02:22:21;2.70;99.90
2955;DHT22;1487;51.470;6.938;2023-04-26T02:24:50;2.70;99.90
2955;DHT22;1487;51.470;6.938;2023-04-26T02:27:17;2.60;99.90
2955;DHT22;1487;51.470;6.938;2023-04-26T02:29:44;2.60;99.90
2955;DHT22;1487;51.470;6.938;2023-04-26T02:32:13;2.70;99.90
2955;DHT22;1487;51.470;6.938;2023-04-26T02:34:39;2.70;99.90
2955;DHT22;1487;51.470;6.938;2023-04-26T02:37:07;2.70;99.90
2955;DHT22;1487;51.470;6.938;2023-04-26T02:39:34;2.70;99.90
2955;DHT22;1487;51.470;6.938;2023-04-26T02:42:01;2.60;99.90
2955;DHT22;1487;51.470;6.938;2023-04-26T02:44:28;2.60;99.90
2955;DHT22;1487;51.470;6.938;2023-04-26T02:46:56;2.60;99.90
2955;DHT22;1487;51.470;6.938;2023-04-26T02:49:24;2.60;99.90
2955;DHT22;1487;51.470;6.938;2023-04-26T02:51:51;2.50;99.90
2955;DHT22;1487;51.470;6.938;2023-04-26T02:54:18;2.50;99.90
2955;DHT22;1487;51.470;6.938;2023-04-26T02:56:44;2.50;99.90
2955;DHT22;1487;51.470;6.938;2023-04-26T02:59:11;2.50;99.90
2955;DHT22;1487;51.470;6.938;2023-04-26T03:01:38;2.60;99.90
2955;DHT22;1487;51.470;6.938;2023-04-26T03:04:05;2.50;99.90
2955;DHT22;1487;51.470;6.938;2023-04-26T03:06:33;2.50;99.90
2955;DHT22;1487;51.470;6.938;2023-04-26T03:08:59;2.40;99.90
2955;DHT22;1487;51.470;6.938;2023-04-26T03:11:26;2.40;99.90
2955;DHT22;1487;51.470;6.938;2023-04-26T03:13:53;2.40;99.90
2955;DHT22;1487;51.470;6.938;2023-04-26T03:16:21;2.40;99.90
2955;DHT22;1487;51.470;6.938;2023-04-26T03:18:48;2.50;99.90
2955;DHT22;1487;51.470;6.938;2023-04-26T03:21:15;2.50;99.90
2955;DHT22;1487;51.470;6.938;2023-04-26T03:23:43;2.50;99.90
2955;DHT22;1487;51.470;6.938;2023-04-26T03:26:10;2.40;99.90
2955;DHT22;1487;51.470;6.938;2023-04-26T03:28:37;2.40;99.90
2955;DHT22;1487;51.470;6.938;2023-04-26T03:31:04;2.40;99.90
2955;DHT22;1487;51.470;6.938;2023-04-26T03:33:33;2.40;99.90
2955;DHT22;1487;51.470;6.938;2023-04-26T03:36:00;2.40;99.90
2955;DHT22;1487;51.470;6.938;2023-04-26T03:38:27;2.40;99.90
2955;DHT22;1487;51.470;6.938;2023-04-26T03:40:55;2.30;99.90
2955;DHT22;1487;51.470;6.938;2023-04-26T03:43:22;2.30;99.90
2955;DHT22;1487;51.470;6.938;2023-04-26T03:45:49;2.40;99.90
2955;DHT22;1487;51.470;6.938;2023-04-26T03:48:15;2.30;99.90
2955;DHT22;1487;51.470;6.938;2023-04-26T03:50:42;2.30;99.90
2955;DHT22;1487;51.470;6.938;2023-04-26T03:53:10;2.20;99.90
2955;DHT22;1487;51.470;6.938;2023-04-26T03:55:37;2.20;99.90
2955;DHT22;1487;51.470;6.938;2023-04-26T03:58:05;2.20;99.90
2955;DHT22;1487;51.470;6.938;2023-04-26T04:00:33;2.20;99.90
2955;DHT22;1487;51.470;6.938;2023-04-26T04:03:00;2.20;99.90
2955;DHT22;1487;51.470;6.938;2023-04-26T04:05:27;2.20;99.90
2955;DHT22;1487;51.470;6.938;2023-04-26T04:07:53;2.20;99.90
2955;DHT22;1487;51.470;6.938;2023-04-26T04:10:21;2.20;99.90
2955;DHT22;1487;51.470;6.938;2023-04-26T04:12:48;2.10;99.90
2955;DHT22;1487;51.470;6.938;2023-04-26T04:15:17;2.10;99.90
2955;DHT22;1487;51.470;6.938;2023-04-26T04:17:44;2.20;99.90
2955;DHT22;1487;51.470;6.938;2023-04-26T04:20:12;2.10;99.90
2955;DHT22;1487;51.470;6.938;2023-04-26T04:22:38;2.10;99.90
2955;DHT22;1487;51.470;6.938;2023-04-26T04:25:06;2.20;99.90
2955;DHT22;1487;51.470;6.938;2023-04-26T04:27:33;2.10;99.90
2955;DHT22;1487;51.470;6.938;2023-04-26T04:30:01;2.10;99.90
2955;DHT22;1487;51.470;6.938;2023-04-26T04:32:30;2.10;99.90
2955;DHT22;1487;51.470;6.938;2023-04-26T04:34:58;2.20;99.90
2955;DHT22;1487;51.470;6.938;2023-04-26T04:37:25;2.10;99.90
2955;DHT22;1487;51.470;6.938;2023-04-26T04:39:53;2.20;99.90
2955;DHT22;1487;51.470;6.938;2023-04-26T04:42:20;2.20;99.90
2955;DHT22;1487;51.470;6.938;2023-04-26T04:44:47;2.20;99.90
2955;DHT22;1487;51.470;6.938;2023-04-26T04:47:14;2.20;99.90
2955;DHT22;1487;51.470;6.938;2023-04-26T04:49:43;2.30;99.90
2955;DHT22;1487;51.470;6.938;2023-04-26T04:52:10;2.30;99.90
2955;DHT22;1487;51.470;6.938;2023-04-26T04:54:37;2.30;99.90
2955;DHT22;1487;51.470;6.938;2023-04-26T04:57:04;2.40;99.90
2955;DHT22;1487;51.470;6.938;2023-04-26T04:59:31;2.50;99.90
2955;DHT22;1487;51.470;6.938;2023-04-26T05:01:58;2.60;99.90
2955;DHT22;1487;51.470;6.938;2023-04-26T05:04:24;2.70;99.90
2955;DHT22;1487;51.470;6.938;2023-04-26T05:06:52;2.70;99.90
2955;DHT22;1487;51.470;6.938;2023-04-26T05:09:19;2.80;99.90
2955;DHT22;1487;51.470;6.938;2023-04-26T05:11:46;3.00;99.90
2955;DHT22;1487;51.470;6.938;2023-04-26T05:14:13;3.10;99.90
2955;DHT22;1487;51.470;6.938;2023-04-26T05:16:40;3.10;99.90
2955;DHT22;1487;51.470;6.938;2023-04-26T05:19:07;3.30;99.90
2955;DHT22;1487;51.470;6.938;2023-04-26T05:21:34;3.40;99.90
2955;DHT22;1487;51.470;6.938;2023-04-26T05:24:02;3.50;99.90
2955;DHT22;1487;51.470;6.938;2023-04-26T05:26:29;3.60;99.90
2955;DHT22;1487;51.470;6.938;2023-04-26T05:28:56;3.70;99.90
2955;DHT22;1487;51.470;6.938;2023-04-26T05:31:23;3.80;99.90
2955;DHT22;1487;51.470;6.938;2023-04-26T05:33:50;3.90;99.90
2955;DHT22;1487;51.470;6.938;2023-04-26T05:36:17;4.00;99.90
2955;DHT22;1487;51.470;6.938;2023-04-26T05:38:44;4.10;99.90
2955;DHT22;1487;51.470;6.938;2023-04-26T05:41:12;4.20;99.90
2955;DHT22;1487;51.470;6.938;2023-04-26T05:43:39;4.30;99.90
2955;DHT22;1487;51.470;6.938;2023-04-26T05:46:05;4.40;99.90
2955;DHT22;1487;51.470;6.938;2023-04-26T05:48:32;4.70;99.90
2955;DHT22;1487;51.470;6.938;2023-04-26T05:50:59;5.00;99.90
2955;DHT22;1487;51.470;6.938;2023-04-26T05:53:26;5.00;99.90
2955;DHT22;1487;51.470;6.938;2023-04-26T05:55:53;5.20;99.90
2955;DHT22;1487;51.470;6.938;2023-04-26T05:58:21;5.60;99.90
2955;DHT22;1487;51.470;6.938;2023-04-26T06:00:47;6.30;99.90
2955;DHT22;1487;51.470;6.938;2023-04-26T06:03:14;7.00;99.90
2955;DHT22;1487;51.470;6.938;2023-04-26T06:05:41;7.70;99.90
2955;DHT22;1487;51.470;6.938;2023-04-26T06:08:08;8.50;99.90
2955;DHT22;1487;51.470;6.938;2023-04-26T06:10:35;9.50;99.90
2955;DHT22;1487;51.470;6.938;2023-04-26T06:13:02;10.80;99.90
2955;DHT22;1487;51.470;6.938;2023-04-26T06:15:30;11.90;99.90
2955;DHT22;1487;51.470;6.938;2023-04-26T06:17:57;13.00;99.90
2955;DHT22;1487;51.470;6.938;2023-04-26T06:20:24;13.90;99.90
2955;DHT22;1487;51.470;6.938;2023-04-26T06:22:51;15.00;99.80
2955;DHT22;1487;51.470;6.938;2023-04-26T06:25:18;16.20;92.70
2955;DHT22;1487;51.470;6.938;2023-04-26T06:27:45;17.00;83.60
2955;DHT22;1487;51.470;6.938;2023-04-26T06:30:12;17.20;81.00
2955;DHT22;1487;51.470;6.938;2023-04-26T06:32:41;17.80;77.90
2955;DHT22;1487;51.470;6.938;2023-04-26T06:35:08;18.10;76.70
2955;DHT22;1487;51.470;6.938;2023-04-26T06:37:36;18.80;75.70
2955;DHT22;1487;51.470;6.938;2023-04-26T06:40:04;19.80;71.00
2955;DHT22;1487;51.470;6.938;2023-04-26T06:42:31;20.00;66.20
2955;DHT22;1487;51.470;6.938;2023-04-26T06:44:58;20.00;65.50
2955;DHT22;1487;51.470;6.938;2023-04-26T06:47:24;20.30;64.20
2955;DHT22;1487;51.470;6.938;2023-04-26T06:49:52;20.20;62.10
2955;DHT22;1487;51.470;6.938;2023-04-26T06:52:19;20.40;61.20
2955;DHT22;1487;51.470;6.938;2023-04-26T06:54:46;20.50;61.50
2955;DHT22;1487;51.470;6.938;2023-04-26T06:57:13;20.10;60.00
2955;DHT22;1487;51.470;6.938;2023-04-26T06:59:40;19.10;60.00
2955;DHT22;1487;51.470;6.938;2023-04-26T07:02:07;18.40;61.90
2955;DHT22;1487;51.470;6.938;2023-04-26T07:04:33;18.70;63.90
2955;DHT22;1487;51.470;6.938;2023-04-26T07:07:02;19.10;65.40
2955;DHT22;1487;51.470;6.938;2023-04-26T07:09:29;18.90;61.10
2955;DHT22;1487;51.470;6.938;2023-04-26T07:11:56;18.20;62.30
2955;DHT22;1487;51.470;6.938;2023-04-26T07:14:23;17.00;63.30
2955;DHT22;1487;51.470;6.938;2023-04-26T07:16:50;16.80;66.70
2955;DHT22;1487;51.470;6.938;2023-04-26T07:19:16;17.40;67.60
2955;DHT22;1487;51.470;6.938;2023-04-26T07:21:44;18.60;67.80
2955;DHT22;1487;51.470;6.938;2023-04-26T07:24:12;18.80;63.70
2955;DHT22;1487;51.470;6.938;2023-04-26T07:26:39;18.50;63.10
2955;DHT22;1487;51.470;6.938;2023-04-26T07:29:06;18.00;67.00
2955;DHT22;1487;51.470;6.938;2023-04-26T07:31:33;17.80;63.90
2955;DHT22;1487;51.470;6.938;2023-04-26T07:33:59;18.20;64.10
2955;DHT22;1487;51.470;6.938;2023-04-26T07:36:26;18.90;64.50
2955;DHT22;1487;51.470;6.938;2023-04-26T07:38:53;18.10;63.00
2955;DHT22;1487;51.470;6.938;2023-04-26T07:41:21;18.20;63.40
2955;DHT22;1487;51.470;6.938;2023-04-26T07:43:48;17.10;63.60
2955;DHT22;1487;51.470;6.938;2023-04-26T07:46:15;15.70;65.10
2955;DHT22;1487;51.470;6.938;2023-04-26T07:48:41;14.60;68.20
2955;DHT22;1487;51.470;6.938;2023-04-26T07:51:10;14.00;70.80
2955;DHT22;1487;51.470;6.938;2023-04-26T07:53:37;13.70;71.20
2955;DHT22;1487;51.470;6.938;2023-04-26T07:56:05;13.50;72.20
2955;DHT22;1487;51.470;6.938;2023-04-26T07:58:34;13.60;73.20
2955;DHT22;1487;51.470;6.938;2023-04-26T08:01:01;13.80;73.30
2955;DHT22;1487;51.470;6.938;2023-04-26T08:03:29;14.30;71.20
2955;DHT22;1487;51.470;6.938;2023-04-26T08:05:55;14.40;70.00
2955;DHT22;1487;51.470;6.938;2023-04-26T08:08:24;14.50;69.80
2955;DHT22;1487;51.470;6.938;2023-04-26T08:10:50;14.70;69.80
2955;DHT22;1487;51.470;6.938;2023-04-26T08:13:17;14.90;68.30
2955;DHT22;1487;51.470;6.938;2023-04-26T08:15:45;14.90;66.70
2955;DHT22;1487;51.470;6.938;2023-04-26T08:18:12;13.90;67.00
2955;DHT22;1487;51.470;6.938;2023-04-26T08:20:39;13.30;68.90
2955;DHT22;1487;51.470;6.938;2023-04-26T08:23:06;13.00;71.30
2955;DHT22;1487;51.470;6.938;2023-04-26T08:25:33;12.30;71.90
2955;DHT22;1487;51.470;6.938;2023-04-26T08:28:00;12.10;73.30
2955;DHT22;1487;51.470;6.938;2023-04-26T08:30:27;11.90;75.70
2955;DHT22;1487;51.470;6.938;2023-04-26T08:32:55;11.30;73.80
2955;DHT22;1487;51.470;6.938;2023-04-26T08:35:22;11.20;78.20
2955;DHT22;1487;51.470;6.938;2023-04-26T08:37:48;11.00;78.90
2955;DHT22;1487;51.470;6.938;2023-04-26T08:40:21;10.80;79.90
2955;DHT22;1487;51.470;6.938;2023-04-26T08:42:47;10.50;82.90
2955;DHT22;1487;51.470;6.938;2023-04-26T08:45:15;10.40;88.50
2955;DHT22;1487;51.470;6.938;2023-04-26T08:47:43;10.30;90.20
2955;DHT22;1487;51.470;6.938;2023-04-26T08:50:13;10.30;93.50
2955;DHT22;1487;51.470;6.938;2023-04-26T08:52:41;10.40;99.90
2955;DHT22;1487;51.470;6.938;2023-04-26T08:55:09;10.60;99.90
2955;DHT22;1487;51.470;6.938;2023-04-26T08:57:37;10.70;99.90
2955;DHT22;1487;51.470;6.938;2023-04-26T09:00:06;11.00;99.90
2955;DHT22;1487;51.470;6.938;2023-04-26T09:02:37;11.80;99.90
2955;DHT22;1487;51.470;6.938;2023-04-26T09:05:06;13.10;88.30
2955;DHT22;1487;51.470;6.938;2023-04-26T09:07:39;13.70;85.10
2955;DHT22;1487;51.470;6.938;2023-04-26T09:10:08;14.10;80.90
2955;DHT22;1487;51.470;6.938;2023-04-26T09:12:35;14.00;74.80
2955;DHT22;1487;51.470;6.938;2023-04-26T09:15:02;13.90;74.90
2955;DHT22;1487;51.470;6.938;2023-04-26T09:17:33;13.30;73.60
2955;DHT22;1487;51.470;6.938;2023-04-26T09:20:09;12.80;75.40
2955;DHT22;1487;51.470;6.938;2023-04-26T09:22:44;12.40;77.00
2955;DHT22;1487;51.470;6.938;2023-04-26T09:25:11;12.10;78.00
2955;DHT22;1487;51.470;6.938;2023-04-26T09:27:40;11.60;78.20
2955;DHT22;1487;51.470;6.938;2023-04-26T09:30:09;10.90;81.10
2955;DHT22;1487;51.470;6.938;2023-04-26T09:32:44;10.50;86.00
2955;DHT22;1487;51.470;6.938;2023-04-26T09:35:23;10.60;97.40
2955;DHT22;1487;51.470;6.938;2023-04-26T09:37:55;10.60;96.10
2955;DHT22;1487;51.470;6.938;2023-04-26T09:40:23;10.50;94.90
2955;DHT22;1487;51.470;6.938;2023-04-26T09:43:02;10.50;93.90
2955;DHT22;1487;51.470;6.938;2023-04-26T09:45:30;10.60;95.80
2955;DHT22;1487;51.470;6.938;2023-04-26T09:48:16;10.70;91.70
2955;DHT22;1487;51.470;6.938;2023-04-26T09:50:43;10.70;89.20
2955;DHT22;1487;51.470;6.938;2023-04-26T09:53:24;10.90;88.50
2955;DHT22;1487;51.470;6.938;2023-04-26T09:55:52;11.00;83.60
2955;DHT22;1487;51.470;6.938;2023-04-26T09:58:19;11.20;83.00
2955;DHT22;1487;51.470;6.938;2023-04-26T10:00:49;11.30;85.00
2955;DHT22;1487;51.470;6.938;2023-04-26T10:03:17;11.80;87.80
2955;DHT22;1487;51.470;6.938;2023-04-26T10:05:46;12.10;89.00
2955;DHT22;1487;51.470;6.938;2023-04-26T10:08:14;12.60;86.60
2955;DHT22;1487;51.470;6.938;2023-04-26T10:10:41;12.60;76.30
2955;DHT22;1487;51.470;6.938;2023-04-26T10:13:08;12.70;79.00
2955;DHT22;1487;51.470;6.938;2023-04-26T10:15:38;12.70;81.20
2955;DHT22;1487;51.470;6.938;2023-04-26T10:18:05;12.80;79.10
2955;DHT22;1487;51.470;6.938;2023-04-26T10:20:31;13.20;78.90
2955;DHT22;1487;51.470;6.938;2023-04-26T10:23:01;13.50;73.80
2955;DHT22;1487;51.470;6.938;2023-04-26T10:25:37;13.60;74.70
2955;DHT22;1487;51.470;6.938;2023-04-26T10:28:05;13.70;72.70
2955;DHT22;1487;51.470;6.938;2023-04-26T10:30:32;13.60;70.80
2955;DHT22;1487;51.470;6.938;2023-04-26T10:33:13;13.10;68.60
2955;DHT22;1487;51.470;6.938;2023-04-26T10:36:05;13.10;71.10
2955;DHT22;1487;51.470;6.938;2023-04-26T10:38:33;13.00;70.80
2955;DHT22;1487;51.470;6.938;2023-04-26T10:46:49;13.80;73.10
2955;DHT22;1487;51.470;6.938;2023-04-26T10:49:18;14.10;73.30
2955;DHT22;1487;51.470;6.938;2023-04-26T10:52:09;14.10;67.60
2955;DHT22;1487;51.470;6.938;2023-04-26T10:54:54;13.90;65.60
2955;DHT22;1487;51.470;6.938;2023-04-26T10:57:22;13.60;65.90
2955;DHT22;1487;51.470;6.938;2023-04-26T11:00:16;13.80;67.20
2955;DHT22;1487;51.470;6.938;2023-04-26T11:02:47;14.20;70.90
2955;DHT22;1487;51.470;6.938;2023-04-26T11:08:24;14.30;67.70
2955;DHT22;1487;51.470;6.938;2023-04-26T11:11:06;14.90;66.00
2955;DHT22;1487;51.470;6.938;2023-04-26T11:13:37;16.20;64.70
2955;DHT22;1487;51.470;6.938;2023-04-26T11:16:07;17.00;63.00
2955;DHT22;1487;51.470;6.938;2023-04-26T11:18:36;17.60;61.40
2955;DHT22;1487;51.470;6.938;2023-04-26T11:21:04;18.10;61.90
2955;DHT22;1487;51.470;6.938;2023-04-26T11:23:31;17.80;56.70
2955;DHT22;1487;51.470;6.938;2023-04-26T11:25:59;17.50;56.70
2955;DHT22;1487;51.470;6.938;2023-04-26T11:28:27;17.50;59.80
2955;DHT22;1487;51.470;6.938;2023-04-26T11:30:54;17.60;59.60
2955;DHT22;1487;51.470;6.938;2023-04-26T11:33:23;18.80;58.00
2955;DHT22;1487;51.470;6.938;2023-04-26T11:35:50;18.80;54.20
2955;DHT22;1487;51.470;6.938;2023-04-26T11:38:21;17.90;54.60
2955;DHT22;1487;51.470;6.938;2023-04-26T11:40:52;17.20;55.40
2955;DHT22;1487;51.470;6.938;2023-04-26T11:43:20;16.70;56.10
2955;DHT22;1487;51.470;6.938;2023-04-26T11:45:47;16.30;58.00
2955;DHT22;1487;51.470;6.938;2023-04-26T11:48:14;17.20;58.70
2955;DHT22;1487;51.470;6.938;2023-04-26T11:50:43;18.20;57.40
2955;DHT22;1487;51.470;6.938;2023-04-26T11:53:10;19.20;57.00
2955;DHT22;1487;51.470;6.938;2023-04-26T11:55:38;19.80;56.90
2955;DHT22;1487;51.470;6.938;2023-04-26T11:58:10;20.10;54.70
2955;DHT22;1487;51.470;6.938;2023-04-26T12:00:54;20.20;52.60
2955;DHT22;1487;51.470;6.938;2023-04-26T12:03:21;19.90;51.10
2955;DHT22;1487;51.470;6.938;2023-04-26T12:05:54;19.10;51.60
2955;DHT22;1487;51.470;6.938;2023-04-26T12:08:23;18.40;52.00
2955;DHT22;1487;51.470;6.938;2023-04-26T12:10:50;18.30;54.80
2955;DHT22;1487;51.470;6.938;2023-04-26T12:13:18;17.90;54.90
2955;DHT22;1487;51.470;6.938;2023-04-26T12:15:45;17.40;54.30
2955;DHT22;1487;51.470;6.938;2023-04-26T12:18:12;16.80;54.40
2955;DHT22;1487;51.470;6.938;2023-04-26T12:20:40;16.20;54.70
2955;DHT22;1487;51.470;6.938;2023-04-26T12:23:11;15.80;56.60
2955;DHT22;1487;51.470;6.938;2023-04-26T12:25:40;15.40;57.40
2955;DHT22;1487;51.470;6.938;2023-04-26T12:28:09;15.00;57.10
2955;DHT22;1487;51.470;6.938;2023-04-26T12:30:39;14.60;58.30
2955;DHT22;1487;51.470;6.938;2023-04-26T12:33:06;14.50;58.70
2955;DHT22;1487;51.470;6.938;2023-04-26T12:35:33;14.40;59.40
2955;DHT22;1487;51.470;6.938;2023-04-26T12:38:00;14.30;60.40
2955;DHT22;1487;51.470;6.938;2023-04-26T12:40:28;14.50;60.70
2955;DHT22;1487;51.470;6.938;2023-04-26T12:42:55;14.60;59.30
2955;DHT22;1487;51.470;6.938;2023-04-26T12:45:23;14.80;60.80
2955;DHT22;1487;51.470;6.938;2023-04-26T12:47:52;14.80;59.70
2955;DHT22;1487;51.470;6.938;2023-04-26T12:50:18;14.90;57.80
2955;DHT22;1487;51.470;6.938;2023-04-26T12:52:46;15.10;59.40
2955;DHT22;1487;51.470;6.938;2023-04-26T12:55:14;15.00;58.30
2955;DHT22;1487;51.470;6.938;2023-04-26T12:57:43;14.60;58.70
2955;DHT22;1487;51.470;6.938;2023-04-26T13:00:12;14.60;59.80
2955;DHT22;1487;51.470;6.938;2023-04-26T13:02:40;14.50;59.60
2955;DHT22;1487;51.470;6.938;2023-04-26T13:05:07;14.00;59.20
2955;DHT22;1487;51.470;6.938;2023-04-26T13:07:36;14.10;61.30
2955;DHT22;1487;51.470;6.938;2023-04-26T13:10:04;13.60;59.90
2955;DHT22;1487;51.470;6.938;2023-04-26T13:12:32;13.70;62.60
2955;DHT22;1487;51.470;6.938;2023-04-26T13:15:00;13.90;62.00
2955;DHT22;1487;51.470;6.938;2023-04-26T13:17:27;14.10;62.00
2955;DHT22;1487;51.470;6.938;2023-04-26T13:19:53;14.30;61.60
2955;DHT22;1487;51.470;6.938;2023-04-26T13:22:20;14.20;61.00
2955;DHT22;1487;51.470;6.938;2023-04-26T13:24:47;14.30;60.90
2955;DHT22;1487;51.470;6.938;2023-04-26T13:27:14;14.20;62.60
2955;DHT22;1487;51.470;6.938;2023-04-26T13:29:41;13.70;59.80
2955;DHT22;1487;51.470;6.938;2023-04-26T13:32:09;13.60;60.90
2955;DHT22;1487;51.470;6.938;2023-04-26T13:34:36;13.60;61.00
2955;DHT22;1487;51.470;6.938;2023-04-26T13:37:04;13.60;61.40
2955;DHT22;1487;51.470;6.938;2023-04-26T13:39:31;13.30;61.90
2955;DHT22;1487;51.470;6.938;2023-04-26T13:41:58;13.40;63.70
2955;DHT22;1487;51.470;6.938;2023-04-26T13:44:26;13.50;63.00
2955;DHT22;1487;51.470;6.938;2023-04-26T13:46:54;13.60;61.80
2955;DHT22;1487;51.470;6.938;2023-04-26T13:49:23;13.60;63.00
2955;DHT22;1487;51.470;6.938;2023-04-26T13:51:51;13.80;61.90
2955;DHT22;1487;51.470;6.938;2023-04-26T13:54:18;14.00;60.30
2955;DHT22;1487;51.470;6.938;2023-04-26T13:56:47;14.10;59.70
2955;DHT22;1487;51.470;6.938;2023-04-26T13:59:14;14.00;60.70
2955;DHT22;1487;51.470;6.938;2023-04-26T14:01:40;14.00;60.10
2955;DHT22;1487;51.470;6.938;2023-04-26T14:04:07;14.00;61.90
2955;DHT22;1487;51.470;6.938;2023-04-26T14:06:35;14.20;62.10
2955;DHT22;1487;51.470;6.938;2023-04-26T14:09:02;14.20;59.50
2955;DHT22;1487;51.470;6.938;2023-04-26T14:11:30;14.20;59.40
2955;DHT22;1487;51.470;6.938;2023-04-26T14:13:57;14.10;59.50
2955;DHT22;1487;51.470;6.938;2023-04-26T14:16:24;14.20;60.20
2955;DHT22;1487;51.470;6.938;2023-04-26T14:18:51;14.30;59.90
2955;DHT22;1487;51.470;6.938;2023-04-26T14:21:18;14.80;62.40
2955;DHT22;1487;51.470;6.938;2023-04-26T14:23:47;15.40;61.60
2955;DHT22;1487;51.470;6.938;2023-04-26T14:26:14;15.60;59.60
2955;DHT22;1487;51.470;6.938;2023-04-26T14:28:41;15.90;59.00
2955;DHT22;1487;51.470;6.938;2023-04-26T14:31:08;16.20;58.80
2955;DHT22;1487;51.470;6.938;2023-04-26T14:33:35;16.10;59.40
2955;DHT22;1487;51.470;6.938;2023-04-26T14:36:02;15.90;57.90
2955;DHT22;1487;51.470;6.938;2023-04-26T14:38:29;15.30;59.20
2955;DHT22;1487;51.470;6.938;2023-04-26T14:40:57;15.10;59.60
2955;DHT22;1487;51.470;6.938;2023-04-26T14:43:24;14.80;59.00
2955;DHT22;1487;51.470;6.938;2023-04-26T14:45:51;14.50;59.20
2955;DHT22;1487;51.470;6.938;2023-04-26T14:48:17;14.10;59.30
2955;DHT22;1487;51.470;6.938;2023-04-26T14:50:44;14.20;59.80
2955;DHT22;1487;51.470;6.938;2023-04-26T14:53:11;14.20;60.70
2955;DHT22;1487;51.470;6.938;2023-04-26T14:55:38;14.10;59.70
2955;DHT22;1487;51.470;6.938;2023-04-26T14:58:06;14.20;58.80
2955;DHT22;1487;51.470;6.938;2023-04-26T15:00:32;14.40;60.60
2955;DHT22;1487;51.470;6.938;2023-04-26T15:02:59;14.50;58.80
2955;DHT22;1487;51.470;6.938;2023-04-26T15:05:26;14.60;58.20
2955;DHT22;1487;51.470;6.938;2023-04-26T15:07:53;14.70;58.10
2955;DHT22;1487;51.470;6.938;2023-04-26T15:10:20;14.70;57.70
2955;DHT22;1487;51.470;6.938;2023-04-26T15:12:47;15.00;60.00
2955;DHT22;1487;51.470;6.938;2023-04-26T15:15:15;15.40;59.80
2955;DHT22;1487;51.470;6.938;2023-04-26T15:17:41;15.30;58.20
2955;DHT22;1487;51.470;6.938;2023-04-26T15:20:09;15.30;57.90
2955;DHT22;1487;51.470;6.938;2023-04-26T15:22:35;15.20;58.20
2955;DHT22;1487;51.470;6.938;2023-04-26T15:25:03;15.20;58.30
2955;DHT22;1487;51.470;6.938;2023-04-26T15:27:32;15.20;59.70
2955;DHT22;1487;51.470;6.938;2023-04-26T15:29:59;15.10;57.50
2955;DHT22;1487;51.470;6.938;2023-04-26T15:32:27;15.00;57.50
2955;DHT22;1487;51.470;6.938;2023-04-26T15:34:54;14.70;55.90
2955;DHT22;1487;51.470;6.938;2023-04-26T15:37:21;14.30;56.20
2955;DHT22;1487;51.470;6.938;2023-04-26T15:39:48;14.10;58.70
2955;DHT22;1487;51.470;6.938;2023-04-26T15:42:15;14.00;59.80
2955;DHT22;1487;51.470;6.938;2023-04-26T15:44:42;13.70;58.10
2955;DHT22;1487;51.470;6.938;2023-04-26T15:47:09;13.60;59.30
2955;DHT22;1487;51.470;6.938;2023-04-26T15:49:37;13.30;59.20
2955;DHT22;1487;51.470;6.938;2023-04-26T15:52:03;12.90;59.50
2955;DHT22;1487;51.470;6.938;2023-04-26T15:54:30;12.80;60.00
2955;DHT22;1487;51.470;6.938;2023-04-26T15:56:57;12.80;63.10
2955;DHT22;1487;51.470;6.938;2023-04-26T15:59:24;12.70;64.70
2955;DHT22;1487;51.470;6.938;2023-04-26T16:01:51;12.60;64.80
2955;DHT22;1487;51.470;6.938;2023-04-26T16:04:17;12.50;66.90
2955;DHT22;1487;51.470;6.938;2023-04-26T16:06:46;12.10;65.70
2955;DHT22;1487;51.470;6.938;2023-04-26T16:09:12;11.90;66.70
2955;DHT22;1487;51.470;6.938;2023-04-26T16:11:44;11.80;69.10
2955;DHT22;1487;51.470;6.938;2023-04-26T16:14:11;11.80;71.70
2955;DHT22;1487;51.470;6.938;2023-04-26T16:16:38;12.00;72.40
2955;DHT22;1487;51.470;6.938;2023-04-26T16:19:05;12.00;71.50
2955;DHT22;1487;51.470;6.938;2023-04-26T16:21:32;11.70;68.80